createdAt,value
2023-02-09T00:00:02.072Z,96.73
2023-02-09T00:02:29.068Z,93.13
2023-02-09T00:04:55.667Z,93.97
2023-02-09T00:07:22.160Z,105.27
2023-02-09T00:09:48.714Z,101.37
2023-02-09T00:12:33.771Z,100.20
2023-02-09T00:15:00.339Z,93.03
2023-02-09T00:17:26.874Z,95.27
2023-02-09T00:19:56.555Z,100.03
2023-02-09T00:22:23.068Z,105.47
2023-02-09T00:24:49.621Z,96.87
2023-02-09T00:27:16.301Z,110.90
2023-02-09T00:29:42.761Z,110.67
2023-02-09T00:32:09.305Z,110.67
2023-02-09T00:34:36.835Z,100.93
2023-02-09T00:37:03.558Z,98.03
2023-02-09T00:39:30.248Z,103.73
2023-02-09T00:42:05.989Z,103.83
2023-02-09T00:44:33.198Z,106.23
2023-02-09T00:46:59.834Z,99.27
2023-02-09T00:49:26.322Z,105.20
2023-02-09T00:51:52.981Z,117.63
2023-02-09T00:54:19.529Z,100.87
2023-02-09T00:56:46.081Z,99.80
2023-02-09T00:59:12.648Z,111.00
2023-02-09T01:01:39.235Z,103.67
2023-02-09T01:04:05.820Z,109.43
2023-02-09T01:06:32.286Z,101.87
2023-02-09T01:08:58.803Z,113.40
2023-02-09T01:11:28.240Z,113.03
2023-02-09T01:13:55.298Z,111.13
2023-02-09T01:16:21.867Z,108.00
2023-02-09T01:18:48.333Z,103.73
2023-02-09T01:21:15.745Z,109.33
2023-02-09T01:23:42.213Z,104.37
2023-02-09T01:26:09.229Z,112.13
2023-02-09T01:28:36.924Z,107.00
2023-02-09T01:31:04.155Z,104.43
2023-02-09T01:33:30.729Z,94.37
2023-02-09T01:36:00.294Z,106.90
2023-02-09T01:38:26.769Z,106.83
2023-02-09T01:40:53.270Z,104.53
2023-02-09T01:43:19.762Z,109.17
2023-02-09T01:45:51.044Z,102.00
2023-02-09T01:48:18.917Z,106.87
2023-02-09T01:50:46.096Z,96.73
2023-02-09T01:53:12.771Z,102.17
2023-02-09T01:55:44.704Z,106.33
2023-02-09T01:58:12.170Z,108.37
2023-02-09T02:00:38.647Z,107.90
2023-02-09T02:03:06.110Z,102.47
2023-02-09T02:05:33.942Z,106.80
2023-02-09T02:08:04.916Z,105.60
2023-02-09T02:10:31.417Z,113.97
2023-02-09T02:12:57.901Z,104.97
2023-02-09T02:15:27.121Z,108.73
2023-02-09T02:18:13.912Z,115.17
2023-02-09T02:20:43.745Z,106.77
2023-02-09T02:23:10.507Z,109.70
2023-02-09T02:25:46.233Z,104.13
2023-02-09T02:28:12.764Z,106.03
2023-02-09T02:30:51.510Z,111.43
2023-02-09T02:33:36.769Z,106.97
2023-02-09T02:36:12.557Z,111.20
2023-02-09T02:38:40.028Z,104.97
2023-02-09T02:41:09.511Z,108.90
2023-02-09T02:43:51.320Z,109.50
2023-02-09T02:46:17.908Z,111.43
2023-02-09T02:48:45.943Z,104.33
2023-02-09T02:51:24.718Z,114.27
2023-02-09T02:53:52.152Z,103.60
2023-02-09T02:56:19.303Z,118.23
2023-02-09T02:58:45.791Z,107.73
2023-02-09T03:01:13.168Z,107.83
2023-02-09T03:03:39.706Z,110.70
2023-02-09T03:06:06.243Z,111.70
2023-02-09T03:08:48.853Z,102.53
2023-02-09T03:11:15.353Z,103.87
2023-02-09T03:14:02.096Z,113.33
2023-02-09T03:16:28.644Z,109.67
2023-02-09T03:18:58.206Z,113.27
2023-02-09T03:21:42.072Z,106.27
2023-02-09T03:24:13.296Z,109.67
2023-02-09T03:26:48.205Z,110.40
2023-02-09T03:29:14.675Z,112.90
2023-02-09T03:31:41.246Z,108.67
2023-02-09T03:34:07.756Z,111.77
2023-02-09T03:36:35.230Z,116.30
2023-02-09T03:39:02.783Z,116.03
2023-02-09T03:41:29.273Z,116.50
2023-02-09T03:44:14.569Z,101.73
2023-02-09T03:46:43.703Z,114.43
2023-02-09T03:49:10.549Z,98.83
2023-02-09T03:51:37.008Z,107.50
2023-02-09T03:54:03.978Z,100.77
2023-02-09T03:56:30.429Z,115.90
2023-02-09T03:58:56.917Z,117.43
2023-02-09T04:01:23.525Z,125.40
2023-02-09T04:03:50.356Z,109.00
2023-02-09T04:06:16.863Z,109.27
2023-02-09T04:08:43.435Z,111.27
2023-02-09T04:11:09.973Z,120.87
2023-02-09T04:13:36.493Z,125.23
2023-02-09T04:16:03.108Z,110.13
2023-02-09T04:18:29.595Z,112.20
2023-02-09T04:20:56.080Z,111.67
2023-02-09T04:23:22.530Z,116.93
2023-02-09T04:25:49.042Z,125.40
2023-02-09T04:28:15.729Z,123.07
2023-02-09T04:30:43.975Z,124.60
2023-02-09T04:33:13.712Z,118.10
2023-02-09T04:35:40.215Z,128.40
2023-02-09T04:38:06.688Z,129.43
2023-02-09T04:40:33.195Z,123.47
2023-02-09T04:42:59.691Z,141.67
2023-02-09T04:45:26.182Z,142.67
2023-02-09T04:47:52.665Z,143.37
2023-02-09T04:50:19.315Z,146.63
2023-02-09T04:52:45.783Z,148.87
2023-02-09T04:55:12.276Z,144.70
2023-02-09T04:57:57.447Z,141.40
2023-02-09T05:00:23.942Z,152.07
2023-02-09T05:02:50.505Z,140.10
2023-02-09T05:05:17.079Z,144.00
2023-02-09T05:07:43.648Z,148.17
2023-02-09T05:10:10.241Z,137.47
2023-02-09T05:12:36.789Z,144.00
2023-02-09T05:15:03.570Z,145.07
2023-02-09T05:17:31.503Z,150.53
2023-02-09T05:19:57.957Z,142.77
2023-02-09T05:22:24.461Z,132.87
2023-02-09T05:24:50.946Z,149.43
2023-02-09T05:27:17.461Z,161.90
2023-02-09T05:29:43.988Z,142.10
2023-02-09T05:32:10.551Z,150.00
2023-02-09T05:34:37.085Z,153.53
2023-02-09T05:37:03.674Z,153.30
2023-02-09T05:39:30.218Z,165.83
2023-02-09T05:42:15.468Z,155.60
2023-02-09T05:44:48.584Z,164.67
2023-02-09T05:47:15.826Z,161.60
2023-02-09T05:49:42.356Z,152.37
2023-02-09T05:52:09.108Z,154.87
2023-02-09T05:54:35.661Z,150.63
2023-02-09T05:57:02.218Z,148.97
2023-02-09T05:59:28.720Z,156.10
2023-02-09T06:01:55.246Z,159.70
2023-02-09T06:04:21.780Z,159.57
2023-02-09T06:06:48.312Z,152.83
2023-02-09T06:09:14.800Z,167.00
2023-02-09T06:11:41.286Z,178.80
2023-02-09T06:14:07.832Z,165.50
2023-02-09T06:16:34.517Z,181.87
2023-02-09T06:19:00.966Z,179.20
2023-02-09T06:21:27.456Z,178.90
2023-02-09T06:23:53.921Z,206.60
2023-02-09T06:26:20.457Z,189.93
2023-02-09T06:28:47.000Z,199.67
2023-02-09T06:31:13.601Z,215.80
2023-02-09T06:33:40.236Z,229.03
2023-02-09T06:36:07.274Z,218.60
2023-02-09T06:38:34.201Z,227.80
2023-02-09T06:41:00.750Z,232.13
2023-02-09T06:43:27.343Z,225.07
2023-02-09T06:45:53.891Z,223.93
2023-02-09T06:48:20.397Z,213.67
2023-02-09T06:50:47.304Z,205.20
2023-02-09T06:53:14.016Z,216.67
2023-02-09T06:55:40.644Z,214.83
2023-02-09T06:58:07.100Z,213.03
2023-02-09T07:00:33.557Z,209.63
2023-02-09T07:03:00.414Z,198.80
2023-02-09T07:05:26.959Z,200.37
2023-02-09T07:07:53.506Z,195.20
2023-02-09T07:10:20.068Z,196.83
2023-02-09T07:12:46.558Z,178.07
2023-02-09T07:15:13.339Z,180.70
2023-02-09T07:17:39.817Z,185.43
2023-02-09T07:20:06.595Z,181.37
2023-02-09T07:22:33.337Z,186.23
2023-02-09T07:24:59.836Z,174.07
2023-02-09T07:27:26.660Z,187.60
2023-02-09T07:29:53.193Z,165.63
2023-02-09T07:32:19.709Z,167.10
2023-02-09T07:34:46.228Z,154.80
2023-02-09T07:37:12.746Z,155.33
2023-02-09T07:39:39.565Z,155.73
2023-02-09T07:42:06.230Z,145.70
2023-02-09T07:44:33.108Z,147.03
2023-02-09T07:46:59.557Z,149.20
2023-02-09T07:49:26.054Z,143.67
2023-02-09T07:51:52.557Z,130.87
2023-02-09T07:54:19.141Z,117.90
2023-02-09T07:56:45.663Z,114.83
2023-02-09T07:59:12.139Z,117.40
2023-02-09T08:01:38.762Z,115.07
2023-02-09T08:04:05.357Z,113.10
2023-02-09T08:06:43.066Z,108.80
2023-02-09T08:09:10.061Z,113.17
2023-02-09T08:11:44.050Z,103.07
2023-02-09T08:14:13.722Z,105.23
2023-02-09T08:16:40.194Z,110.70
2023-02-09T08:19:09.138Z,99.93
2023-02-09T08:21:36.659Z,101.13
2023-02-09T08:24:03.967Z,105.00
2023-02-09T08:26:30.440Z,98.10
2023-02-09T08:28:56.999Z,102.20
2023-02-09T08:31:23.611Z,99.27
2023-02-09T08:33:50.261Z,95.17
2023-02-09T08:36:17.103Z,99.03
2023-02-09T08:38:44.687Z,92.93
2023-02-09T08:41:11.724Z,88.40
2023-02-09T08:43:38.257Z,97.90
2023-02-09T08:46:05.671Z,92.77
2023-02-09T08:48:35.623Z,92.80
2023-02-09T08:51:02.596Z,89.27
2023-02-09T08:53:29.082Z,84.93
2023-02-09T08:55:55.575Z,90.57
2023-02-09T08:58:22.068Z,95.13
2023-02-09T09:00:48.611Z,93.23
2023-02-09T09:03:15.264Z,99.07
2023-02-09T09:05:41.916Z,87.97
2023-02-09T09:08:10.575Z,94.30
2023-02-09T09:10:37.053Z,85.83
2023-02-09T09:13:03.534Z,83.90
2023-02-09T09:15:30.016Z,87.73
2023-02-09T09:17:56.505Z,82.37
2023-02-09T09:20:23.038Z,81.00
2023-02-09T09:22:49.693Z,96.43
2023-02-09T09:25:16.194Z,96.00
2023-02-09T09:27:42.728Z,85.07
2023-02-09T09:30:09.485Z,90.43
2023-02-09T09:32:36.091Z,91.80
2023-02-09T09:35:03.668Z,92.30
2023-02-09T09:37:30.331Z,87.23
2023-02-09T09:39:56.868Z,84.90
2023-02-09T09:42:29.387Z,78.77
2023-02-09T09:44:55.866Z,86.10
2023-02-09T09:47:24.799Z,81.07
2023-02-09T09:49:51.300Z,83.73
2023-02-09T09:52:17.810Z,87.70
2023-02-09T09:54:44.300Z,78.93
2023-02-09T09:57:21.651Z,76.23
2023-02-09T09:59:48.279Z,83.53
2023-02-09T10:02:33.539Z,72.67
2023-02-09T10:05:19.636Z,69.40
2023-02-09T10:08:01.419Z,58.87
2023-02-09T10:10:31.025Z,60.10
2023-02-09T10:12:57.615Z,59.63
2023-02-09T10:15:24.085Z,59.20
2023-02-09T10:17:50.622Z,59.03
2023-02-09T10:20:17.152Z,59.60
2023-02-09T10:22:44.001Z,58.83
2023-02-09T10:25:29.390Z,47.33
2023-02-09T10:27:55.887Z,54.23
2023-02-09T10:30:27.240Z,66.00
2023-02-09T10:32:53.802Z,60.73
2023-02-09T10:35:25.126Z,52.83
2023-02-09T10:37:55.268Z,47.83
2023-02-09T10:40:24.591Z,47.47
2023-02-09T10:42:57.813Z,44.93
2023-02-09T10:45:24.307Z,47.10
2023-02-09T10:48:01.421Z,50.83
2023-02-09T10:50:27.949Z,46.80
2023-02-09T10:52:56.348Z,50.53
2023-02-09T10:55:33.487Z,45.37
2023-02-09T10:58:21.195Z,55.10
2023-02-09T11:00:52.864Z,40.20
2023-02-09T11:03:23.058Z,45.03
2023-02-09T11:05:57.041Z,46.93
2023-02-09T11:08:23.522Z,44.60
2023-02-09T11:10:53.083Z,53.77
2023-02-09T11:13:21.673Z,42.40
2023-02-09T11:16:08.469Z,48.77
2023-02-09T11:18:35.011Z,49.43
2023-02-09T11:21:05.893Z,52.27
2023-02-09T11:23:38.496Z,45.70
2023-02-09T11:26:04.980Z,42.00
2023-02-09T11:28:37.840Z,48.93
2023-02-09T11:31:23.289Z,53.87
2023-02-09T11:33:53.079Z,42.00
2023-02-09T11:36:22.678Z,39.73
2023-02-09T11:38:51.542Z,36.30
2023-02-09T11:41:39.772Z,29.40
2023-02-09T11:44:06.312Z,26.53
2023-02-09T11:46:33.485Z,16.37
2023-02-09T11:49:11.251Z,20.70
2023-02-09T11:51:38.236Z,16.60
2023-02-09T11:54:17.679Z,15.40
2023-02-09T11:56:51.168Z,14.90
2023-02-09T11:59:22.213Z,12.23
2023-02-09T12:01:48.643Z,14.80
2023-02-09T12:04:22.830Z,12.13
2023-02-09T12:06:50.370Z,10.47
2023-02-09T12:09:29.136Z,14.27
2023-02-09T12:12:04.603Z,12.33
2023-02-09T12:14:35.344Z,10.43
2023-02-09T12:17:11.497Z,12.10
2023-02-09T12:19:38.313Z,11.90
2023-02-09T12:22:25.042Z,11.93
2023-02-09T12:25:25.530Z,10.43
2023-02-09T12:28:11.138Z,9.17
2023-02-09T12:30:40.819Z,10.07
2023-02-09T12:33:17.134Z,8.57
2023-02-09T12:35:43.754Z,7.77
2023-02-09T12:38:17.140Z,9.00
2023-02-09T12:40:43.871Z,15.87
2023-02-09T12:43:14.910Z,9.40
2023-02-09T12:45:42.378Z,8.90
2023-02-09T12:48:08.924Z,9.73
2023-02-09T12:50:44.602Z,9.97
2023-02-09T12:53:23.504Z,9.40
2023-02-09T12:56:23.068Z,8.60
2023-02-09T12:58:49.544Z,7.63
2023-02-09T13:01:16.291Z,8.13
2023-02-09T13:04:01.840Z,8.87
2023-02-09T13:06:37.452Z,9.13
2023-02-09T13:09:05.232Z,11.03
2023-02-09T13:11:43.516Z,7.53
2023-02-09T13:14:11.740Z,8.13
2023-02-09T13:16:57.111Z,8.80
2023-02-09T13:19:45.986Z,6.07
2023-02-09T13:22:20.149Z,10.70
2023-02-09T13:25:08.992Z,9.53
2023-02-09T13:27:35.760Z,7.33
2023-02-09T13:30:02.244Z,6.93
2023-02-09T13:32:34.882Z,10.90
2023-02-09T13:35:13.695Z,6.80
2023-02-09T13:37:47.780Z,9.00
2023-02-09T13:40:17.578Z,8.00
2023-02-09T13:42:53.326Z,8.23
2023-02-09T13:45:20.411Z,6.97
2023-02-09T13:47:46.908Z,8.63
2023-02-09T13:50:14.356Z,8.77
2023-02-09T13:52:40.851Z,6.87
2023-02-09T13:55:20.680Z,9.17
2023-02-09T13:57:50.729Z,11.17
2023-02-09T14:00:30.418Z,8.20
2023-02-09T14:02:57.826Z,10.40
2023-02-09T14:05:40.856Z,8.07
2023-02-09T14:08:07.913Z,8.90
2023-02-09T14:10:34.550Z,8.47
2023-02-09T14:13:05.052Z,10.03
2023-02-09T14:15:51.652Z,6.87
2023-02-09T14:18:38.395Z,8.30
2023-02-09T14:21:10.936Z,10.40
2023-02-09T14:23:37.842Z,9.97
2023-02-09T14:26:05.843Z,11.87
2023-02-09T14:28:32.729Z,10.53
2023-02-09T14:30:59.296Z,9.33
2023-02-09T14:33:28.709Z,12.70
2023-02-09T14:35:56.091Z,10.60
2023-02-09T14:38:33.891Z,14.43
2023-02-09T14:41:00.388Z,12.90
2023-02-09T14:43:27.419Z,10.97
2023-02-09T14:46:01.195Z,10.37
2023-02-09T14:48:28.202Z,10.77
2023-02-09T14:50:58.320Z,14.97
2023-02-09T14:53:25.168Z,12.23
2023-02-09T14:55:51.647Z,12.57
2023-02-09T14:58:25.214Z,15.53
2023-02-09T15:00:51.979Z,11.07
2023-02-09T15:03:18.560Z,13.00
2023-02-09T15:05:45.274Z,12.23
2023-02-09T15:08:14.541Z,11.13
2023-02-09T15:10:44.659Z,12.63
2023-02-09T15:13:12.239Z,11.97
2023-02-09T15:15:39.861Z,11.17
2023-02-09T15:18:06.496Z,15.23
2023-02-09T15:20:32.982Z,13.70
2023-02-09T15:23:00.812Z,9.70
2023-02-09T15:25:27.442Z,17.80
2023-02-09T15:27:56.683Z,19.83
2023-02-09T15:30:24.277Z,14.23
2023-02-09T15:32:50.775Z,16.67
2023-02-09T15:35:18.357Z,16.90
2023-02-09T15:37:52.109Z,19.63
2023-02-09T15:40:41.697Z,17.57
2023-02-09T15:43:30.395Z,17.63
2023-02-09T15:46:15.499Z,15.57
2023-02-09T15:48:42.170Z,20.63
2023-02-09T15:51:08.814Z,15.97
2023-02-09T15:53:36.261Z,17.97
2023-02-09T15:56:02.796Z,18.37
2023-02-09T15:58:35.867Z,22.77
2023-02-09T16:01:02.886Z,19.20
2023-02-09T16:03:31.720Z,19.20
2023-02-09T16:06:02.226Z,21.23
2023-02-09T16:08:30.392Z,21.67
2023-02-09T16:10:57.020Z,23.87
2023-02-09T16:13:23.628Z,26.57
2023-02-09T16:15:50.211Z,27.47
2023-02-09T16:18:16.720Z,24.30
2023-02-09T16:20:47.105Z,20.63
2023-02-09T16:23:23.191Z,19.90
2023-02-09T16:25:50.356Z,22.93
2023-02-09T16:28:16.935Z,18.90
2023-02-09T16:30:51.144Z,21.00
2023-02-09T16:33:18.415Z,24.33
2023-02-09T16:35:45.645Z,25.33
2023-02-09T16:38:15.523Z,25.07
2023-02-09T16:40:42.072Z,27.27
2023-02-09T16:43:08.741Z,27.73
2023-02-09T16:45:35.379Z,30.43
2023-02-09T16:48:01.972Z,36.03
2023-02-09T16:50:32.970Z,36.70
2023-02-09T16:53:00.440Z,37.40
2023-02-09T16:55:26.960Z,49.97
2023-02-09T16:57:54.987Z,48.67
2023-02-09T17:00:25.422Z,62.23
2023-02-09T17:02:59.717Z,62.40
2023-02-09T17:10:46.306Z,80.17
2023-02-09T17:13:12.899Z,77.60
2023-02-09T17:15:43.228Z,87.83
2023-02-09T17:18:09.966Z,87.60
2023-02-09T17:20:46.793Z,86.33
2023-02-09T17:23:17.540Z,90.67
2023-02-09T17:25:44.881Z,81.13
2023-02-09T17:28:11.786Z,78.53
2023-02-09T17:30:38.377Z,76.97
2023-02-09T17:33:06.353Z,74.03
2023-02-09T17:36:03.606Z,75.60
2023-02-09T17:38:22.881Z,75.93
2023-02-09T17:40:50.014Z,84.20
2023-02-09T17:43:16.602Z,76.47
2023-02-09T17:45:48.028Z,77.53
2023-02-09T17:48:15.276Z,71.63
2023-02-09T17:50:44.815Z,70.43
2023-02-09T17:53:14.471Z,72.37
2023-02-09T17:55:41.231Z,67.83
2023-02-09T17:58:07.729Z,70.07
2023-02-09T18:00:34.442Z,70.33
2023-02-09T18:03:01.181Z,75.13
2023-02-09T18:05:28.327Z,68.20
2023-02-09T18:07:54.941Z,78.30
2023-02-09T18:10:22.131Z,82.33
2023-02-09T18:12:48.810Z,80.07
2023-02-09T18:15:22.789Z,68.33
2023-02-09T18:17:49.523Z,63.30
2023-02-09T18:20:17.240Z,70.63
2023-02-09T18:22:45.283Z,63.20
2023-02-09T18:25:19.953Z,65.03
2023-02-09T18:27:46.700Z,66.40
2023-02-09T18:30:13.488Z,71.67
2023-02-09T18:32:40.366Z,70.63
2023-02-09T18:35:07.280Z,74.70
2023-02-09T18:37:33.779Z,66.57
2023-02-09T18:40:00.425Z,59.17
2023-02-09T18:42:27.049Z,64.70
2023-02-09T18:44:53.954Z,64.80
2023-02-09T18:47:21.016Z,59.90
2023-02-09T18:49:48.465Z,60.23
2023-02-09T18:52:17.138Z,58.03
2023-02-09T18:54:43.746Z,56.10
2023-02-09T18:57:10.396Z,49.23
2023-02-09T18:59:37.278Z,54.53
2023-02-09T19:02:03.925Z,50.87
2023-02-09T19:04:30.607Z,50.90
2023-02-09T19:06:57.531Z,51.67
2023-02-09T19:09:24.165Z,60.50
2023-02-09T19:11:51.091Z,53.67
2023-02-09T19:14:36.104Z,54.13
2023-02-09T19:17:02.747Z,58.27
2023-02-09T19:19:29.476Z,57.33
2023-02-09T19:21:57.896Z,56.30
2023-02-09T19:24:24.458Z,58.27
2023-02-09T19:26:51.075Z,55.83
2023-02-09T19:29:17.626Z,54.37
2023-02-09T19:31:44.285Z,56.43
2023-02-09T19:34:10.875Z,52.47
2023-02-09T19:36:37.478Z,55.13
2023-02-09T19:39:04.146Z,56.63
2023-02-09T19:41:30.674Z,60.53
2023-02-09T19:43:57.465Z,52.33
2023-02-09T19:46:24.395Z,57.00
2023-02-09T19:48:53.922Z,54.27
2023-02-09T19:51:20.546Z,55.90
2023-02-09T19:53:47.207Z,60.70
2023-02-09T19:56:14.454Z,53.67
2023-02-09T19:58:41.022Z,57.73
2023-02-09T20:01:08.445Z,59.13
2023-02-09T20:03:35.385Z,55.17
2023-02-09T20:06:05.011Z,56.00
2023-02-09T20:08:31.801Z,61.67
2023-02-09T20:10:58.388Z,54.93
2023-02-09T20:13:25.060Z,52.33
2023-02-09T20:15:51.849Z,55.97
2023-02-09T20:18:19.761Z,55.50
2023-02-09T20:20:46.678Z,55.00
2023-02-09T20:23:15.592Z,52.43
2023-02-09T20:25:45.263Z,50.97
2023-02-09T20:28:15.112Z,50.83
2023-02-09T20:30:42.629Z,47.63
2023-02-09T20:33:10.807Z,45.23
2023-02-09T20:35:44.034Z,44.73
2023-02-09T20:38:10.836Z,50.27
2023-02-09T20:40:37.554Z,49.17
2023-02-09T20:43:22.806Z,47.37
2023-02-09T20:46:08.134Z,45.07
2023-02-09T20:48:34.697Z,51.07
2023-02-09T20:51:02.382Z,48.67
2023-02-09T20:53:30.031Z,49.03
2023-02-09T20:55:58.671Z,47.80
2023-02-09T20:58:25.254Z,55.87
2023-02-09T21:00:52.263Z,72.00
2023-02-09T21:03:19.044Z,63.80
2023-02-09T21:05:45.627Z,69.50
2023-02-09T21:08:12.148Z,59.50
2023-02-09T21:10:38.874Z,60.00
2023-02-09T21:13:05.863Z,49.80
2023-02-09T21:15:33.800Z,52.87
2023-02-09T21:18:00.470Z,50.00
2023-02-09T21:20:27.057Z,42.77
2023-02-09T21:22:53.692Z,42.30
2023-02-09T21:25:20.257Z,40.20
2023-02-09T21:27:47.500Z,40.23
2023-02-09T21:30:16.002Z,42.37
2023-02-09T21:32:42.848Z,41.13
2023-02-09T21:35:10.459Z,38.57
2023-02-09T21:37:41.118Z,37.50
2023-02-09T21:40:07.916Z,39.13
2023-02-09T21:42:36.890Z,50.70
2023-02-09T21:45:03.612Z,43.47
2023-02-09T21:47:30.968Z,45.13
2023-02-09T21:49:57.666Z,47.30
2023-02-09T21:52:24.315Z,44.90
2023-02-09T21:54:51.032Z,41.63
2023-02-09T21:57:17.542Z,41.00
2023-02-09T21:59:44.066Z,41.07
2023-02-09T22:02:14.823Z,36.20
2023-02-09T22:04:41.703Z,40.00
2023-02-09T22:07:08.590Z,38.13
2023-02-09T22:09:38.581Z,38.83
2023-02-09T22:12:05.243Z,38.17
2023-02-09T22:14:31.828Z,35.30
2023-02-09T22:16:58.476Z,36.23
2023-02-09T22:19:25.215Z,36.80
2023-02-09T22:21:51.990Z,38.53
2023-02-09T22:24:19.242Z,41.40
2023-02-09T22:26:45.954Z,41.90
2023-02-09T22:29:13.054Z,50.27
2023-02-09T22:31:39.671Z,41.03
2023-02-09T22:34:07.388Z,39.17
2023-02-09T22:36:34.504Z,39.00
2023-02-09T22:39:01.378Z,40.73
2023-02-09T22:41:27.940Z,45.17
2023-02-09T22:43:54.662Z,39.73
2023-02-09T22:46:21.713Z,38.20
2023-02-09T22:48:55.008Z,41.30
2023-02-09T22:51:21.752Z,46.53
2023-02-09T22:53:48.286Z,42.67
2023-02-09T22:56:14.822Z,42.90
2023-02-09T22:58:41.392Z,40.27
2023-02-09T23:01:07.983Z,40.33
2023-02-09T23:03:34.613Z,42.27
2023-02-09T23:06:04.627Z,33.47
2023-02-09T23:08:31.206Z,34.57
2023-02-09T23:11:16.727Z,46.03
2023-02-09T23:13:43.488Z,38.53
2023-02-09T23:16:11.051Z,34.33
2023-02-09T23:18:37.863Z,36.83
2023-02-09T23:21:05.110Z,39.40
2023-02-09T23:23:31.684Z,37.10
2023-02-09T23:25:58.189Z,33.43
2023-02-09T23:28:25.072Z,37.00
2023-02-09T23:30:51.643Z,35.03
2023-02-09T23:33:18.402Z,37.30
2023-02-09T23:35:45.067Z,33.83
2023-02-09T23:38:11.646Z,29.97
2023-02-09T23:40:38.738Z,31.80
2023-02-09T23:43:05.356Z,31.67
2023-02-09T23:45:32.074Z,33.73
2023-02-09T23:47:58.582Z,29.00
2023-02-09T23:50:26.022Z,33.80
2023-02-09T23:52:52.617Z,31.37
2023-02-09T23:55:19.270Z,30.33
2023-02-09T23:57:45.776Z,32.30
